Latest Weather Observations for Giles*

IDD60801

Issued at 11:31 pm CST Thursday 8 December 2016 (issued every 30 minutes, with the page automatically refreshed every 10 minutes)

About weather observations | Map of weather stations | Latest weather observations for NT | Other Formats
Station Details ID: 013017 Name: GILES METEOROLOGICAL OFFICE Lat: -25.03 Lon: 128.30 Height: 598.0 m
Data from the previous 72 hours. | See also: Recent months at Giles*

* Giles observations are collected in the South Australia time zone, which includes daylight saving in the summer period. Therefore, Rain since 9am value is with respect to South Australia local time.

Date/Time
CST
Temp
°C
App
Temp
°C
Dew
Point
°C
Rel
Hum
%
Delta-T
°C
Wind Press
QNH
hPa
Press
MSL
hPa
Rain since
9am
mm
Dir  Spd
km/h
Gust
km/h
Spd
kts
Gust
kts
08/11:30pm 23.8 17.9 1.8 23 10.7 SE 22 26 12 14 1016.6 1012.1 -
08/11:00pm 24.4 18.6 2.2 23 10.9 SE 22 32 12 17 1016.6 1012.1 0.0
08/10:30pm 25.1 19.7 2.2 22 11.3 SE 20 32 11 17 1016.6 1012.1 0.0
08/10:00pm 25.9 19.7 2.1 21 11.8 SE 24 32 13 17 1016.3 1011.8 0.0
08/09:30pm 26.4 20.7 3.1 22 11.8 SE 22 32 12 17 1015.8 1011.2 0.0
08/09:00pm 26.8 21.7 4.2 23 11.7 SE 20 30 11 16 1015.6 1011.0 0.0
08/08:30pm 27.6 22.5 4.1 22 12.2 SSE 20 28 11 15 1015.1 1010.6 0.0
08/08:00pm 28.4 23.0 4.7 22 12.5 SE 22 32 12 17 1014.8 1010.3 0.0
08/07:30pm 29.1 23.4 4.8 21 12.9 SE 24 33 13 18 1014.4 1009.8 0.0
08/07:00pm 29.6 23.4 4.1 19 13.4 SE 26 33 14 18 1014.1 1009.5 0.0
08/06:30pm 30.0 24.0 5.2 21 13.3 SSE 26 35 14 19 1013.8 1009.2 0.0
08/06:00pm 30.5 24.2 5.6 21 13.5 SE 28 41 15 22 1013.4 1008.9 0.0
08/05:30pm 31.0 24.9 5.0 19 14.0 SSE 26 37 14 20 1013.1 1008.6 0.0
08/05:00pm 31.8 26.4 4.6 18 14.6 SE 22 33 12 18 1013.0 1008.4 0.0
08/04:30pm 31.7 26.0 5.1 18 14.4 SE 24 35 13 19 1013.2 1008.7 0.0
08/04:00pm 31.3 25.6 4.9 19 14.2 SE 24 35 13 19 1013.3 1008.8 0.0
08/03:30pm 30.9 24.9 5.1 19 13.9 SE 26 41 14 22 1013.5 1009.0 0.0
08/03:00pm 32.1 26.8 5.2 18 14.6 SE 22 35 12 19 1013.8 1009.2 0.0
08/02:30pm 30.1 25.0 6.0 22 13.1 ESE 22 37 12 20 1014.0 1009.4 0.0
08/02:00pm 31.0 25.1 5.9 20 13.7 SE 26 39 14 21 1014.2 1009.6 0.0
08/01:30pm 30.7 26.0 6.2 21 13.4 SE 20 35 11 19 1014.5 1009.9 0.0
08/01:00pm 30.8 25.5 6.7 22 13.3 SSE 24 35 13 19 1014.7 1010.2 0.0
08/12:30pm 30.3 24.3 7.0 23 12.9 SSE 28 41 15 22 1015.1 1010.6 0.0
08/12:00pm 29.0 23.2 7.8 26 11.8 SSE 28 44 15 24 1015.4 1010.9 0.0
08/11:30am 28.9 23.3 8.7 28 11.4 SE 28 43 15 23 1015.7 1011.1 0.0
08/11:00am 27.1 20.9 7.9 29 10.6 SE 30 39 16 21 1015.9 1011.3 0.0
08/10:30am 27.0 20.5 8.0 30 10.5 SE 32 43 17 23 1015.9 1011.3 0.0
08/10:00am 25.6 19.5 8.4 33 9.5 ESE 30 41 16 22 1016.0 1011.4 0.0
08/09:30am 24.8 18.6 9.9 39 8.4 SE 33 44 18 24 1015.8 1011.2 0.0
08/09:00am 24.4 18.5 11.0 43 7.7 SE 33 46 18 25 1015.7 1011.1 0.0
08/08:30am 24.3 20.3 14.2 53 6.1 SSE 28 41 15 22 1015.6 1011.0 0.0
08/08:00am 23.1 20.5 15.8 63 4.5 SSE 24 35 13 19 1015.4 1010.9 0.0
08/07:30am 22.5 19.9 16.9 70 3.5 SSE 26 35 14 19 1015.4 1010.9 0.0
08/07:00am 21.6 18.8 18.2 81 2.2 SSE 30 39 16 21 1015.1 1010.6 0.0
08/06:30am 21.4 18.8 17.9 80 2.2 SSE 28 39 15 21 1014.9 1010.4 0.0
08/06:00am 22.3 20.1 17.9 76 2.8 SSE 26 37 14 20 1014.3 1009.7 0.0
08/05:30am 23.5 22.8 18.2 72 3.4 S 19 30 10 16 1013.9 1009.3 0.0
08/05:00am 22.9 24.6 18.4 76 2.9 SE 7 9 4 5 1013.3 1008.8 0.0
08/04:30am 23.7 24.7 17.8 69 3.8 SSW 9 13 5 7 1013.4 1008.9 0.0
08/04:00am 23.2 25.0 18.4 74 3.1 S 6 9 3 5 1013.4 1008.9 0.0
08/03:30am 23.4 23.9 18.4 73 3.2 S 13 17 7 9 1013.1 1008.6 0.0
08/03:00am 23.6 24.8 18.3 72 3.4 NW 9 9 5 5 1012.6 1008.0 0.0
08/02:30am 23.4 25.3 18.6 74 3.1 W 6 7 3 4 1012.8 1008.2 0.0
08/02:00am 23.4 24.8 18.6 74 3.1 W 9 11 5 6 1012.6 1008.0 0.0
08/01:30am 24.1 24.5 18.2 69 3.8 N 13 20 7 11 1012.3 1007.7 0.0
08/01:00am 24.8 24.1 17.4 63 4.7 NNW 17 20 9 11 1012.6 1008.0 0.0
08/12:30am 25.2 23.9 17.2 61 5.1 N 20 28 11 15 1012.7 1008.1 0.0
08/12:00am 25.7 23.3 16.3 56 5.9 NNW 24 30 13 16 1012.8 1008.2 0.0
 
Date/Time
CST
Temp
°C
App
Temp
°C
Dew
Point
°C
Rel
Hum
%
Delta-T
°C
Wind Press
QNH
hPa
Press
MSL
hPa
Rain since
9am
mm
Dir  Spd
km/h
Gust
km/h
Spd
kts
Gust
kts
07/11:30pm 26.1 23.6 15.1 50 6.8 NNW 22 30 12 16 1013.0 1008.4 0.0
07/11:00pm 26.4 23.9 13.5 45 7.8 NNW 19 26 10 14 1013.8 1009.2 0.0
07/10:30pm 26.5 22.9 13.0 43 8.1 NNW 24 33 13 18 1013.6 1009.1 0.0
07/10:00pm 26.4 22.8 12.9 43 8.1 N 24 32 13 17 1013.3 1008.8 0.0
07/09:30pm 25.5 22.0 15.5 54 6.2 NNW 28 35 15 19 1013.2 1008.7 0.0
07/09:00pm 26.7 26.5 17.5 57 5.9 NNW 15 20 8 11 1014.1 1009.5 0.0
07/08:30pm 27.1 27.0 16.9 53 6.5 WSW 13 19 7 10 1014.2 1009.6 0.0
07/08:00pm 28.6 26.9 14.8 43 8.6 NW 17 22 9 12 1013.9 1009.3 0.0
07/07:30pm 29.0 26.5 15.1 42 8.7 NNW 22 32 12 17 1013.1 1008.6 0.0
07/07:00pm 29.2 26.6 16.0 44 8.4 NNW 24 33 13 18 1012.1 1007.5 0.0
07/06:30pm 30.1 27.7 16.3 43 8.8 NNW 24 32 13 17 1011.7 1007.2 0.0
07/06:00pm 30.6 27.1 15.4 39 9.6 N 28 39 15 21 1011.5 1006.9 0.0
07/05:30pm 30.9 28.0 15.2 38 9.9 N 24 35 13 19 1011.5 1006.9 0.0
07/05:00pm 31.7 27.0 13.3 32 11.3 N 30 39 16 21 1011.2 1006.6 0.0
07/04:30pm 32.4 29.4 11.9 28 12.4 N 19 24 10 13 1011.2 1006.6 0.0
07/04:00pm 33.3 30.4 12.8 28 12.6 NNE 20 32 11 17 1011.6 1007.1 0.0
07/03:30pm 31.8 28.9 13.0 31 11.5 NNE 20 28 11 15 1012.1 1007.5 0.0
07/03:00pm 33.2 31.3 11.7 27 13.0 WNW 13 22 7 12 1012.4 1007.8 0.0
07/02:30pm 33.5 32.6 11.2 25 13.4 WSW 7 17 4 9 1012.6 1008.0 0.0
07/02:00pm 33.9 32.4 12.0 26 13.3 NW 11 24 6 13 1012.8 1008.2 0.0
07/01:30pm 33.0 31.6 12.3 28 12.6 N 11 20 6 11 1013.2 1008.7 0.0
07/01:00pm 32.8 31.4 12.2 28 12.5 WNW 11 20 6 11 1013.6 1009.1 0.0
07/12:30pm 31.6 29.8 12.0 30 11.8 NNE 13 20 7 11 1014.1 1009.5 0.0
07/12:00pm 30.3 28.7 13.9 36 10.1 NNW 15 24 8 13 1014.5 1009.9 0.0
07/11:30am 30.2 28.4 14.4 38 9.8 NNW 17 24 9 13 1014.9 1010.4 0.0
07/11:00am 29.0 26.6 14.5 41 9.0 N 20 28 11 15 1015.3 1010.8 0.0
07/10:30am 28.4 26.3 15.1 44 8.3 N 20 26 11 14 1015.4 1010.9 0.0
07/10:00am 27.6 25.2 13.8 42 8.4 N 19 24 10 13 1015.7 1011.1 0.0
07/09:30am 26.8 25.3 14.2 46 7.7 N 15 20 8 11 1015.8 1011.2 0.0
07/09:00am 26.8 26.1 15.4 49 7.1 N 13 19 7 10 1015.6 1011.0 0.0
07/08:30am 25.4 25.2 15.8 55 6.0 N 11 17 6 9 1015.6 1011.0 0.0
07/08:00am 24.0 24.1 15.6 59 5.2 N 9 15 5 8 1015.7 1011.1 0.4
07/07:30am 22.5 23.8 16.2 67 3.9 N 4 9 2 5 1015.3 1010.8 0.4
07/07:00am 19.1 21.8 17.7 92 0.9 CALM 0 2 0 1 1015.3 1010.8 0.4
07/06:30am 18.8 20.4 17.0 89 1.1 ENE 4 7 2 4 1015.0 1010.5 0.4
07/06:00am 18.1 19.3 16.8 92 0.8 SSE 6 7 3 4 1014.7 1010.2 0.4
07/05:30am 17.9 18.9 16.9 94 0.6 SSE 7 9 4 5 1014.3 1009.7 0.4
07/05:00am 18.3 20.6 16.8 91 0.9 CALM 0 6 0 3 1014.0 1009.4 0.4
07/04:30am 19.1 20.5 16.5 85 1.6 ENE 4 7 2 4 1013.8 1009.2 0.4
07/04:00am 19.6 21.8 16.5 82 1.9 CALM 0 0 0 0 1013.6 1009.1 0.4
07/03:30am 20.5 20.7 15.8 74 2.9 N 9 11 5 6 1013.3 1008.8 0.4
07/03:00am 19.0 20.9 16.7 86 1.4 E 2 7 1 4 1013.4 1008.9 0.4
07/02:30am 19.6 19.4 16.7 83 1.8 NNW 13 13 7 7 1013.4 1008.9 0.4
07/02:00am 19.9 22.1 16.5 81 2.1 CALM 0 0 0 0 1013.4 1008.9 0.4
07/01:30am 20.3 21.3 16.4 78 2.4 NNW 6 13 3 7 1013.8 1009.2 0.4
07/01:00am 19.9 21.1 17.3 85 1.6 N 7 11 4 6 1014.4 1009.8 0.4
07/12:30am 20.4 21.2 17.4 83 1.9 NE 9 17 5 9 1014.7 1010.2 0.4
07/12:00am 20.2 20.7 18.3 89 1.2 ENE 13 17 7 9 1015.2 1010.7 0.4
 
Date/Time
CST
Temp
°C
App
Temp
°C
Dew
Point
°C
Rel
Hum
%
Delta-T
°C
Wind Press
QNH
hPa
Press
MSL
hPa
Rain since
9am
mm
Dir  Spd
km/h
Gust
km/h
Spd
kts
Gust
kts
06/11:30pm 20.2 21.1 18.5 90 1.1 E 11 13 6 7 1016.2 1011.7 0.4
06/11:00pm 20.1 21.4 18.5 90 1.0 E 9 11 5 6 1017.1 1012.6 0.4
06/10:30pm 20.3 21.2 18.4 89 1.2 ESE 11 11 6 6 1017.3 1012.7 0.4
06/10:00pm 20.7 21.5 18.2 85 1.6 SSE 11 15 6 8 1017.0 1012.5 0.4
06/09:30pm 21.3 22.1 18.2 82 2.0 S 11 11 6 6 1016.8 1012.3 0.4
06/09:00pm 22.2 24.1 18.5 79 2.4 E 6 7 3 4 1016.3 1011.8 0.4
06/08:30pm 22.7 23.6 18.3 76 2.8 NE 11 17 6 9 1015.8 1011.2 0.4
06/08:00pm 23.2 24.6 18.7 76 2.9 NE 9 15 5 8 1015.8 1011.2 0.4
06/07:30pm 23.7 24.9 19.1 75 3.0 NNE 11 19 6 10 1015.1 1010.6 0.4
06/07:00pm 24.7 25.1 18.9 70 3.8 NNE 15 20 8 11 1014.5 1009.9 0.4
06/06:30pm 24.9 25.1 19.3 71 3.7 NNE 17 24 9 13 1014.0 1009.4 0.4
06/06:00pm 25.6 25.1 19.2 67 4.2 NNE 20 26 11 14 1014.0 1009.4 0.4
06/05:30pm 25.5 25.0 19.1 67 4.2 NNE 20 28 11 15 1013.9 1009.3 0.4
06/05:00pm 25.9 25.2 18.7 64 4.7 NE 20 28 11 15 1013.8 1009.2 0.4
06/04:30pm 26.2 25.4 18.5 62 5.0 N 20 28 11 15 1013.9 1009.3 0.4
06/04:00pm 26.4 26.2 18.4 61 5.2 NNE 17 20 9 11 1014.3 1009.7 0.4
06/03:30pm 26.1 26.8 18.8 64 4.8 NNE 13 20 7 11 1014.6 1010.0 0.4
06/03:00pm 25.6 26.8 19.0 67 4.3 NNE 11 17 6 9 1014.9 1010.4 0.4
06/02:30pm 25.0 25.9 18.5 67 4.2 N 11 15 6 8 1015.4 1010.9 0.4
06/02:00pm 25.0 25.5 18.4 66 4.3 N 13 17 7 9 1015.7 1011.1 0.4
06/01:30pm 25.0 25.9 18.4 66 4.3 NNE 11 17 6 9 1015.8 1011.2 0.4
06/01:00pm 25.0 25.1 18.4 66 4.3 NNE 15 20 8 11 1016.2 1011.7 0.4
06/12:30pm 24.6 26.1 18.8 70 3.8 ENE 9 13 5 7 1016.5 1012.0 0.4
06/12:00pm 24.2 25.9 18.6 71 3.6 NE 7 13 4 7 1016.9 1012.4 0.4
06/11:30am 23.2 24.2 18.6 75 3.0 ENE 11 13 6 7 1017.1 1012.6 0.4
06/11:00am 22.3 22.6 17.9 76 2.8 ENE 13 19 7 10 1017.5 1012.9 0.4
06/10:30am 21.9 22.6 18.0 78 2.5 E 11 17 6 9 1017.5 1012.9 0.4
06/10:00am 21.8 21.9 17.5 76 2.7 ESE 13 17 7 9 1017.5 1012.9 0.4
06/09:30am 21.3 21.1 17.7 80 2.3 ESE 15 19 8 10 1017.5 1012.9 0.4
06/09:00am 20.1 20.7 17.6 85 1.6 SE 11 17 6 9 1017.6 1013.0 0.4
06/08:30am 20.1 21.1 16.9 82 2.0 ESE 7 11 4 6 1017.8 1013.3 0.0
06/08:00am 19.8 20.4 16.7 82 1.9 ESE 9 13 5 7 1017.3 1012.7 3.2
06/07:30am 19.4 19.7 17.0 86 1.5 E 11 17 6 9 1016.9 1012.4 3.2
06/07:00am 19.2 19.4 16.8 86 1.5 E 11 13 6 7 1016.8 1012.3 3.2
06/06:30am 18.9 19.6 17.0 89 1.2 E 9 13 5 7 1016.6 1012.1 3.2
06/06:00am 18.7 18.9 16.8 89 1.2 E 11 17 6 9 1016.1 1011.5 3.2
06/05:30am 18.9 19.4 16.6 86 1.4 E 9 13 5 7 1016.3 1011.8 3.2
06/05:00am 19.2 18.9 17.3 89 1.2 E 15 20 8 11 1015.4 1010.9 3.2
06/04:30am 19.5 18.8 17.4 88 1.3 E 17 24 9 13 1015.1 1010.6 3.2
06/04:00am 19.7 19.5 17.5 87 1.4 ENE 15 20 8 11 1014.7 1010.2 3.2
06/03:30am 19.8 19.1 18.2 90 1.0 ENE 19 24 10 13 1014.1 1009.5 3.2
06/03:00am 20.0 21.4 18.6 92 0.9 ESE 9 13 5 7 1014.2 1009.6 3.2
06/02:30am 20.3 21.2 18.3 88 1.3 ENE 11 17 6 9 1014.1 1009.5 3.2
06/02:00am 20.2 19.5 18.3 89 1.2 ESE 19 26 10 14 1013.8 1009.2 3.2
06/01:30am 20.3 21.3 18.6 90 1.1 NE 11 15 6 8 1013.9 1009.3 3.2
06/01:00am 20.4 20.7 18.7 90 1.1 NNE 15 19 8 10 1014.5 1009.9 3.2
06/12:30am 20.7 20.5 18.4 87 1.5 NNE 17 26 9 14 1014.8 1010.3 3.0
06/12:00am 20.2 21.5 19.3 95 0.6 ENE 11 15 6 8 1015.0 1010.5 3.0
 
Date/Time
CST
Temp
°C
App
Temp
°C
Dew
Point
°C
Rel
Hum
%
Delta-T
°C
Wind Press
QNH
hPa
Press
MSL
hPa
Rain since
9am
mm
Dir  Spd
km/h
Gust
km/h
Spd
kts
Gust
kts
05/11:30pm 20.2 23.6 19.3 95 0.6 CALM 0 0 0 0 1015.3 1010.8 2.8
05/11:00pm 20.2 23.6 19.3 95 0.6 CALM 0 0 0 0 1015.4 1010.9 2.8

Other Formats:

Comma delimited format used in spreadsheet applications
http://www.bom.gov.au/fwo/IDD60801/IDD60801.94461.axf

JavaScript Object Notation format (JSON) in row-major order
http://www.bom.gov.au/fwo/IDD60801/IDD60801.94461.json